ADDS METAR Data INFO
IDs: Format: Raw Decoded Include TAF

Data at: 0347 UTC 19 Feb 2018

KHSP 190335Z AUTO 15009KT 10SM CLR 03/M01 A3033 RMK AO2 T00251015
KHSP 190315Z AUTO 16008G15KT 10SM CLR 03/M02 A3033 RMK AO2 T00251016
KHSP 190255Z AUTO 15008KT 10SM CLR 02/M02 A3033 RMK AO2 T00211022
KHSP 190235Z AUTO 15009KT 10SM CLR 02/M02 A3034 RMK AO2 T00241022
KHSP 190215Z AUTO 15008KT 10SM CLR 03/M03 A3033 RMK AO2 T00261027
KHSP 190155Z AUTO 13008KT 10SM CLR 03/M04 A3033 RMK AO2 T00311042
KHSP 190135Z AUTO 15009G14KT 10SM CLR 04/M04 A3032 RMK AO2 T00351043
KHSP 190115Z AUTO 15009KT 10SM CLR 04/M04 A3031 RMK AO2 T00361045
KHSP 190055Z AUTO 15009G14KT 10SM CLR 04/M05 A3031 RMK AO2 T00351046
KHSP 190035Z AUTO 16010KT 10SM CLR 04/M05 A3031 RMK AO2 T00361049
KHSP 190015Z AUTO 15009G15KT 10SM CLR 04/M05 A3030 RMK AO2 T00371051
KHSP 182355Z AUTO 15008KT 10SM CLR 04/M05 A3030 RMK AO2 T00381049 10058 20024
KHSP 182335Z AUTO 15009KT 10SM CLR 04/M04 A3029 RMK AO2 T00391045
KHSP 182315Z AUTO 14007KT 10SM CLR 04/M04 A3029 RMK AO2 T00391045
KHSP 182255Z AUTO 14008KT 10SM CLR 04/M05 A3029 RMK AO2 T00411047
KHSP 182235Z AUTO 14007KT 10SM CLR 04/M05 A3029 RMK AO2 T00411046
KHSP 182215Z AUTO 14005KT 10SM CLR 04/M05 A3029 RMK AO2 T00441048
KHSP 182155Z AUTO 13007KT 10SM CLR 05/M05 A3029 RMK AO2 T00511051
KHSP 182135Z AUTO 14005KT 10SM CLR 06/M06 A3029 RMK AO2 T00551058
KHSP 182115Z AUTO 14004KT 10SM CLR 05/M07 A3029 RMK AO2 T00521070
KHSP 182055Z AUTO 17006KT 10SM CLR 06/M08 A3029 RMK AO2 T00551076
KHSP 182035Z AUTO 17006KT 10SM CLR 06/M07 A3029 RMK AO2 T00561069
KHSP 182015Z AUTO 16004KT 10SM CLR 05/M06 A3029 RMK AO2 T00541058
KHSP 181955Z AUTO 13004KT 10SM CLR 05/M06 A3029 RMK AO2 T00471064
KHSP 181935Z AUTO 18005KT 10SM CLR 05/M05 A3029 RMK AO2 T00471051
KHSP 181915Z AUTO 15005KT 10SM CLR 04/M05 A3028 RMK AO2 T00421048
KHSP 181855Z AUTO 11003KT 10SM CLR 04/M04 A3029 RMK AO2 T00421041
KHSP 181835Z AUTO 00000KT 10SM CLR 03/M04 A3029 RMK AO2 T00341043
KHSP 181815Z AUTO 00000KT 10SM CLR 03/M04 A3030 RMK AO2 T00291041
KHSP 181755Z AUTO 16004KT 10SM CLR 02/M04 A3030 RMK AO2 T00241041 10024 21025
KHSP 181735Z AUTO 00000KT 10SM CLR 01/M04 A3030 RMK AO2 T00111043
KHSP 181715Z AUTO 28003KT 10SM CLR 01/M05 A3031 RMK AO2 T00051050
KHSP 181655Z AUTO 00000KT 10SM SCT018 00/M03 A3032 RMK AO2 T00011035
KHSP 181635Z AUTO 27003KT 10SM CLR 00/M04 A3032 RMK AO2 T00001043
KHSP 181615Z AUTO 00000KT 10SM CLR 00/M05 A3031 RMK AO2 T10051047
KHSP 181555Z AUTO 31006KT 10SM SCT015 M01/M04 A3030 RMK AO2 T10071040
KHSP 181535Z AUTO 29008KT 10SM BKN015 M01/M04 A3029 RMK AO2 T10111039
KHSP 181515Z AUTO 28007KT 10SM OVC015 M01/M03 A3027 RMK AO2 T10131035
KHSP 181455Z AUTO 28009KT 10SM OVC013 M01/M04 A3026 RMK AO2 T10151036
KHSP 181435Z AUTO 29009KT 10SM OVC013 M02/M04 A3025 RMK AO2 T10171037
KHSP 181415Z AUTO 29007KT 260V330 10SM OVC013 M02/M04 A3024 RMK AO2 T10201039
KHSP 181355Z AUTO 30008KT 10SM OVC013 M02/M04 A3022 RMK AO2 T10201037
KHSP 181335Z AUTO 31013G20KT 10SM BKN013 BKN019 M02/M04 A3020 RMK AO2 T10221040
KHSP 181315Z AUTO 30016G25KT 10SM SCT013 SCT019 M02/M04 A3018 RMK AO2 T10221041
KHSP 181255Z AUTO 31015G23KT 10SM BKN011 BKN017 M02/M04 A3017 RMK AO2 T10251043
KHSP 181235Z AUTO 30014G24KT 10SM SCT012 M02/M03 A3014 RMK AO2 T10181035
KHSP 181215Z AUTO 31016G25KT 10SM BKN012 BKN018 M01/M03 A3013 RMK AO2 T10141031
KHSP 181155Z AUTO 30015G21KT 10SM OVC012 M01/M02 A3011 RMK AO2 70015 T10101023 10015 21010
KHSP 181135Z AUTO 29012G25KT 10SM OVC012 M01/M02 A3010 RMK AO2 T10071023
KHSP 181115Z AUTO 29014G25KT 10SM OVC014 00/M02 A3008 RMK AO2 T10051020
KHSP 181055Z AUTO 29017G28KT 10SM BKN014 00/M02 A3007 RMK AO2 T10021021
KHSP 181035Z AUTO 30017G29KT 270V330 10SM SCT010 BKN014 00/M02 A3004 RMK AO2 T00001020
KHSP 181015Z AUTO 29018G31KT 10SM BKN010 BKN014 00/M01 A3004 RMK AO2 T00001007
KHSP 180955Z AUTO 30016G32KT 10SM BKN010 OVC017 00/00 A3003 RMK AO2 T00011003
KHSP 180935Z AUTO 29025G35KT 10SM OVC010 00/00 A3003 RMK AO2 T00041002
KHSP 180915Z AUTO 30025G38KT 270V330 10SM OVC010 01/00 A3002 RMK AO2 T00050000
KHSP 180855Z AUTO 29027G39KT 10SM OVC010 01/00 A3001 RMK AO2 T00050001
KHSP 180835Z AUTO 29024G36KT 10SM OVC008 01/01 A3000 RMK AO2 T00050005
KHSP 180815Z AUTO 29025G35KT 10SM OVC008 01/01 A3000 RMK AO2 T00060006
KHSP 180755Z AUTO 28027G34KT 10SM OVC006 01/01 A3000 RMK AO2 T00070007
KHSP 180740Z AUTO 28024G37KT 10SM OVC006 01/01 A3000 RMK AO2 T00070007
KHSP 180715Z AUTO 28020G27KT 10SM OVC006 01/01 A2998 RMK AO2 T00100010
KHSP 180655Z AUTO 29021G31KT 5SM BR BKN002 OVC006 01/01 A2997 RMK AO2 T00100010
KHSP 180635Z AUTO 29021G31KT 1/4SM -SN OVC002 01/01 A2996 RMK AO2 T00120012
KHSP 180615Z AUTO 28021G29KT M1/4SM -SN OVC002 01/01 A2996 RMK AO2 T00130013
KHSP 180555Z AUTO 28019G26KT M1/4SM -SN OVC002 02/02 A2995 RMK AO2 60004 T00150015 10015 21019
KHSP 180535Z AUTO 28017G25KT M1/4SM -SN OVC002 02/02 A2995 RMK AO2 T00150015
KHSP 180515Z AUTO 28018G24KT M1/4SM +SN OVC002 01/01 A2995 RMK AO2 T00130013
KHSP 180455Z AUTO 27017G23KT M1/4SM SN OVC002 01/01 A2995 RMK AO2 T00120012 400121026
KHSP 180435Z AUTO 27011G19KT M1/4SM SN OVC002 01/01 A2995 RMK AO2 T00100010
KHSP 180415Z AUTO 00000KT M1/4SM +SN OVC002 01/01 A2995 RMK AO2 T00100010
KHSP 180355Z AUTO 00000KT M1/4SM +SN OVC002 01/01 A2995 RMK AO2 P0002 T00100010
KHSP 180335Z AUTO 00000KT M1/4SM +SN OVC002 A2996 RMK AO2 P0001
KHSP 180315Z AUTO 00000KT M1/4SM +SN OVC002 A2996 RMK AO2
KHSP 180255Z AUTO 00000KT M1/4SM SN OVC002 00/00 A2996 RMK AO2 60001 T00030003
KHSP 180235Z AUTO 00000KT M1/4SM -SN OVC002 00/00 A2996 RMK AO2 T00000000
KHSP 180215Z AUTO 00000KT M1/4SM +SN OVC002 00/00 A2996 RMK AO2 T10011001
KHSP 180155Z AUTO 00000KT M1/4SM SN OVC002 M01/M01 A2996 RMK AO2 P0001 T10101010
KHSP 180135Z AUTO 00000KT M1/4SM SN OVC002 M01/M01 A2996 RMK AO2 P0001 T10091009
KHSP 180115Z AUTO 00000KT 1/4SM FG OVC002 00/00 A2996 RMK AO2 T00000000
KHSP 180055Z AUTO 00000KT 1/4SM -SN OVC002 00/00 A2995 RMK AO2 T10051005
KHSP 180035Z AUTO 00000KT 1/4SM UP OVC002 M01/M01 A2995 RMK AO2 T10141014
KHSP 180015Z AUTO 00000KT 1/4SM UP OVC002 M02/M02 A2997 RMK AO2 T10171017
KHSP 172355Z AUTO 00000KT M1/4SM UP OVC002 M02/M02 A2998 RMK AO2 60011 T10191019 11014 21026
KHSP 172335Z AUTO 00000KT M1/4SM -SN OVC002 M02/M02 A2998 RMK AO2 T10221022
KHSP 172315Z AUTO 00000KT M1/4SM SN OVC002 M02/M02 A2998 RMK AO2 T10211021
KHSP 172255Z AUTO 00000KT M1/4SM UP OVC002 M02/M02 A2999 RMK AO2 P0003 T10211021
KHSP 172235Z AUTO 00000KT M1/4SM UP OVC002 M02/M02 A2999 RMK AO2 P0003 T10201020
KHSP 172215Z AUTO 00000KT M1/4SM UP OVC002 M02/M02 A3000 RMK AO2 P0001 T10201020
KHSP 172155Z AUTO 00000KT M1/4SM UP OVC002 M02/M02 A3001 RMK AO2 P0003 T10191019
KHSP 172135Z AUTO 00000KT M1/4SM UP OVC002 M01/M01 A3003 RMK AO2 P0003 T10151015
KHSP 172115Z AUTO 00000KT 1/2SM -SN BKN005 OVC012 M02/M02 A3003 RMK AO2 P0002 T10161016
KHSP 172055Z AUTO 00000KT M1/4SM SN OVC002 M02/M02 A3002 RMK AO2 60005 T10171017
KHSP 172035Z AUTO 00000KT 1/4SM -SN OVC002 M01/M01 A3002 RMK AO2 T10151015
KHSP 172015Z AUTO 00000KT M1/4SM UP OVC002 M02/M02 A3001 RMK AO2 T10201020
KHSP 171955Z AUTO 00000KT M1/4SM UP OVC002 M02/M02 A2999 RMK AO2 P0002 T10201020
KHSP 171935Z AUTO 00000KT M1/4SM UP OVC002 M02/M02 A3000 RMK AO2 P0002 T10191019
KHSP 171915Z AUTO 00000KT 1/4SM UP OVC002 M02/M02 A3002 RMK AO2 P0001 T10161016
KHSP 171855Z AUTO 00000KT 1/4SM UP OVC002 M02/M02 A3004 RMK AO2 P0003 T10181018
KHSP 171835Z AUTO 17007KT M1/4SM -SN OVC002 M02/M02 A3006 RMK AO2 T10201020
KHSP 171815Z AUTO 15011G15KT M1/4SM -SN OVC002 M02/M02 A3006 RMK AO2 T10231023
KHSP 171755Z AUTO 14008KT M1/4SM -SN OVC002 M02/M02 A3005 RMK AO2 T10251025 11015 21025
KHSP 171735Z AUTO 15008KT M1/4SM -SN OVC002 M02/M02 A3007 RMK AO2 T10221022
KHSP 171715Z AUTO 14009G14KT M1/4SM SN OVC002 M02/M02 A3008 RMK AO2 T10211021
KHSP 171655Z AUTO 15009G16KT M1/4SM SN OVC002 M02/M02 A3010 RMK AO2 T10201020
KHSP 171635Z AUTO 15006KT M1/4SM SN OVC002 M02/M02 A3013 RMK AO2 T10201020
KHSP 171615Z AUTO 15008KT M1/4SM -SN OVC002 M02/M02 A3014 RMK AO2 T10201020
KHSP 171555Z AUTO 15008KT M1/4SM -SN OVC002 M02/M02 A3016 RMK AO2 T10201020